METAR Data
IDs: Format: Raw Decoded Include TAF

Data at: 0821 UTC 27 Feb 2020

METAR for:K04V (Saguache Muni, CO, US)
Text:K04V 270807Z AUTO 32007KT 10SM SCT070 M06/M13 A3027 RMK AO2
Temperature: -6.0°C ( 21°F)
Dewpoint:-13.0°C ( 9°F) [RH = 58%]
Pressure (altimeter):30.27 inches Hg (1025.1 mb)
Winds:from the NW (320 degrees) at 8 MPH (7 knots; 3.6 m/s)
Visibility:10 or more sm (16+ km)
Ceiling:at least 12,000 feet AGL
Clouds: scattered clouds at 7000 feet AGL
QC Flag:automated observation with no human augmentation